Home   Weather   USA   Arlington   Past weeks
Flag for USA

Past Weather in Arlington, Texas, USA — Yesterday and Last 2 Weeks

Currently: 91 °F. Sunny. (Weather station: Grand Prairie Municipal Airport, USA). See more current weather

Past Weather in Arlington — Graph

°F

Arlington Temperature Yesterday

Maximum temperature yesterday: 93 °F (at 3:50 pm)
Minimum temperature yesterday: 74 °F (at 5:55 am)
Average temperature yesterday: 83 °F

High & Low Weather Summary for the Past Weeks

 TemperatureHumidityPressure
High95 °F (Jun 6, 3:50 pm)100% (Jun 2, 5:55 am)30.04 "Hg (Jun 2, 5:55 am)
Low67 °F (Jun 5, 5:55 am)23% (Jun 7, 4:50 pm)29.58 "Hg (Jun 4, 5:50 pm)
Average79 °F69%29.88 "Hg
* Reported May 31 4:50 pm — Jun 15 3:50 pm, Arlington. Weather by CustomWeather, © 2024

Note: Actual official high and low records may vary slightly from our data, if they occured in-between our weather recording intervals... More about our weather records

Arlington Weather History for the Previous 24 Hours

Scroll right to see more
 ConditionsComfort  
Time TempWeatherWind HumidityBarometerVisibility
3:50 pm
Sat, Jun 15
91 °FSunny.9 mph38%29.88 "Hg10 mi
2:50 pm91 °FScattered clouds.12 mph41%29.90 "Hg10 mi
1:50 pm91 °FScattered clouds.9 mph41%29.91 "Hg10 mi
12:50 pm90 °FScattered clouds.9 mph43%29.93 "Hg10 mi
11:50 am88 °FScattered clouds.6 mph52%29.96 "Hg10 mi
10:50 am86 °FSunny.8 mph55%29.97 "Hg10 mi
9:50 am84 °FSunny.5 mph58%29.97 "Hg10 mi
8:50 am81 °FSunny.5 mph62%29.98 "Hg10 mi
7:50 am77 °FSunny.No wind69%29.99 "Hg10 mi
6:50 am73 °FSunny.7 mph74%29.99 "Hg10 mi
5:35 am76 °FClear.No wind68%29.96 "Hg10 mi
5:15 am76 °FClear.No wind69%29.95 "Hg10 mi
4:55 am76 °FClear.3 mph68%29.95 "Hg10 mi
4:35 am77 °FClear.No wind68%29.95 "Hg10 mi
4:15 am76 °FClear.No wind71%29.94 "Hg10 mi
3:35 am76 °FClear.No wind69%29.94 "Hg10 mi
2:15 am78 °FClear.No wind66%29.95 "Hg10 mi
1:55 am78 °FClear.No wind64%29.96 "Hg10 mi
1:35 am79 °FClear.No wind64%29.96 "Hg10 mi
1:15 am79 °FClear.3 mph62%29.97 "Hg10 mi
12:55 am79 °FClear.3 mph61%29.97 "Hg10 mi
12:15 am81 °FClear.5 mph57%29.98 "Hg10 mi
11:55 pm
Fri, Jun 14
81 °FClear.3 mph57%29.98 "Hg10 mi
11:35 pm82 °FClear.5 mph54%29.97 "Hg10 mi
11:15 pm82 °FClear.5 mph53%29.97 "Hg10 mi
10:55 pm83 °FClear.5 mph51%29.96 "Hg10 mi
10:35 pm83 °FClear.5 mph49%29.95 "Hg10 mi
10:15 pm85 °FClear.6 mph46%29.95 "Hg10 mi
9:55 pm85 °FClear.7 mph43%29.94 "Hg10 mi
9:35 pm86 °FClear.7 mph41%29.94 "Hg10 mi
9:15 pm86 °FClear.3 mph43%29.93 "Hg10 mi
7:50 pm91 °FSunny.7 mph30%29.92 "Hg10 mi
6:50 pm93 °FSunny.7 mph34%29.91 "Hg10 mi
Weather by CustomWeather, © 2024

See weather overview